DAL2404 KLGA-KTPA
Flight info
| Callsign | DAL2404 |
|---|---|
| Flight time | 2h 25m |
| Altitude | 36000 |
| Route | BIGGY Q75 TEUFL BAAMF DADES1 |
| Aircraft | B738/M-SDE2E3FGHIRWXY/LB1 |
Departure
| Time | 2026-05-05 21:57 |
|---|---|
| Airport | LaGuardia Airport (KLGA) |
Arrival
| Time | 2026-05-06 00:22 |
|---|---|
| Airport | Tampa International Airport (KTPA) |
| Time | Latitude | Longitude | Altitude | Speed | Heading |
|---|---|---|---|---|---|
| 2026-05-05 21:25 | 40.77086 | -73.86262 | 12 ft | 0 kts | 313° |
| 2026-05-05 21:44 | 40.77079 | -73.86253 | 12 ft | 2 kts | 326° |
| 2026-05-05 21:44 | 40.77066 | -73.86244 | 12 ft | 2 kts | 342° |
| 2026-05-05 21:45 | 40.77052 | -73.86240 | 12 ft | 2 kts | 359° |
| 2026-05-05 21:45 | 40.77037 | -73.86242 | 12 ft | 2 kts | 16° |
| 2026-05-05 21:45 | 40.77024 | -73.86249 | 12 ft | 2 kts | 33° |
| 2026-05-05 21:45 | 40.77012 | -73.86262 | 13 ft | 2 kts | 45° |
| 2026-05-05 21:46 | 40.77001 | -73.86276 | 13 ft | 2 kts | 41° |
| 2026-05-05 21:46 | 40.76997 | -73.86281 | 13 ft | 0 kts | 42° |
| 2026-05-05 21:49 | 40.76999 | -73.86279 | 13 ft | 2 kts | 42° |
| 2026-05-05 21:49 | 40.77027 | -73.86244 | 12 ft | 8 kts | 42° |
| 2026-05-05 21:50 | 40.77087 | -73.86173 | 11 ft | 12 kts | 42° |
| 2026-05-05 21:50 | 40.77148 | -73.86103 | 11 ft | 11 kts | 32° |
| 2026-05-05 21:50 | 40.77211 | -73.86121 | 11 ft | 10 kts | 306° |
| 2026-05-05 21:50 | 40.77254 | -73.86204 | 11 ft | 11 kts | 302° |
| 2026-05-05 21:51 | 40.77319 | -73.86260 | 11 ft | 13 kts | 0° |
| 2026-05-05 21:51 | 40.77391 | -73.86327 | 11 ft | 14 kts | 304° |
| 2026-05-05 21:51 | 40.77446 | -73.86446 | 11 ft | 15 kts | 300° |
| 2026-05-05 21:51 | 40.77506 | -73.86574 | 11 ft | 17 kts | 301° |
| 2026-05-05 21:52 | 40.77629 | -73.86828 | 12 ft | 13 kts | 302° |
| 2026-05-05 21:52 | 40.77677 | -73.86932 | 13 ft | 13 kts | 301° |
| 2026-05-05 21:52 | 40.77726 | -73.87037 | 14 ft | 14 kts | 301° |
| 2026-05-05 21:53 | 40.77779 | -73.87148 | 14 ft | 15 kts | 303° |
| 2026-05-05 21:53 | 40.77839 | -73.87270 | 14 ft | 16 kts | 302° |
| 2026-05-05 21:53 | 40.77901 | -73.87402 | 14 ft | 14 kts | 301° |
| 2026-05-05 21:53 | 40.77923 | -73.87448 | 14 ft | 0 kts | 302° |
| 2026-05-05 21:54 | 40.77924 | -73.87450 | 14 ft | 2 kts | 302° |
| 2026-05-05 21:54 | 40.77943 | -73.87489 | 14 ft | 7 kts | 301° |
| 2026-05-05 21:55 | 40.77976 | -73.87560 | 14 ft | 10 kts | 302° |
| 2026-05-05 21:55 | 40.78023 | -73.87655 | 14 ft | 14 kts | 303° |
| 2026-05-05 21:55 | 40.78080 | -73.87773 | 13 ft | 14 kts | 301° |
| 2026-05-05 21:55 | 40.78147 | -73.87859 | 11 ft | 13 kts | 346° |
| 2026-05-05 21:56 | 40.78202 | -73.87808 | 11 ft | 13 kts | 103° |
| 2026-05-05 21:56 | 40.78182 | -73.87756 | 11 ft | 0 kts | 121° |
| 2026-05-05 21:57 | 40.78119 | -73.87624 | 12 ft | 56 kts | 124° |
| 2026-05-05 21:57 | 40.77756 | -73.86867 | 11 ft | 138 kts | 123° |
| 2026-05-05 21:57 | 40.77143 | -73.85577 | 243 ft | 184 kts | 129° |
| 2026-05-05 21:57 | 40.76349 | -73.84244 | 1122 ft | 188 kts | 152° |
| 2026-05-05 21:58 | 40.75193 | -73.83825 | 2071 ft | 179 kts | 194° |
| 2026-05-05 21:58 | 40.74045 | -73.84468 | 2906 ft | 191 kts | 217° |
| 2026-05-05 21:58 | 40.73092 | -73.85692 | 3863 ft | 203 kts | 234° |
| 2026-05-05 21:58 | 40.72528 | -73.87448 | 4647 ft | 227 kts | 257° |
| 2026-05-05 21:59 | 40.72636 | -73.89738 | 4893 ft | 281 kts | 282° |
| 2026-05-05 21:59 | 40.73719 | -73.92182 | 4866 ft | 343 kts | 305° |
| 2026-05-05 21:59 | 40.75435 | -73.94728 | 4839 ft | 388 kts | 301° |
| 2026-05-05 21:59 | 40.76544 | -73.97993 | 5279 ft | 405 kts | 278° |
| 2026-05-05 22:00 | 40.76508 | -74.01666 | 6396 ft | 398 kts | 256° |
| 2026-05-05 22:00 | 40.75446 | -74.04832 | 7440 ft | 368 kts | 236° |
| 2026-05-05 22:00 | 40.73831 | -74.07209 | 8115 ft | 332 kts | 225° |
| 2026-05-05 22:00 | 40.72186 | -74.09145 | 8473 ft | 303 kts | 225° |
| 2026-05-05 22:01 | 40.70726 | -74.10946 | 8763 ft | 275 kts | 228° |
| 2026-05-05 22:01 | 40.69467 | -74.12856 | 9079 ft | 278 kts | 237° |
| 2026-05-05 22:01 | 40.68516 | -74.14944 | 10260 ft | 267 kts | 244° |
| 2026-05-05 22:01 | 40.67728 | -74.17160 | 11016 ft | 271 kts | 248° |
| 2026-05-05 22:02 | 40.67001 | -74.19469 | 11784 ft | 275 kts | 249° |
| 2026-05-05 22:02 | 40.66291 | -74.21783 | 12585 ft | 277 kts | 249° |
| 2026-05-05 22:02 | 40.65558 | -74.24133 | 13350 ft | 281 kts | 249° |
| 2026-05-05 22:02 | 40.64806 | -74.26512 | 14031 ft | 286 kts | 249° |
| 2026-05-05 22:03 | 40.64034 | -74.28935 | 14760 ft | 289 kts | 249° |
| 2026-05-05 22:03 | 40.63253 | -74.31380 | 15455 ft | 293 kts | 249° |
| 2026-05-05 22:03 | 40.62461 | -74.33854 | 16094 ft | 299 kts | 248° |
| 2026-05-05 22:03 | 40.61653 | -74.36379 | 16756 ft | 303 kts | 249° |
| 2026-05-05 22:04 | 40.60838 | -74.38925 | 17369 ft | 308 kts | 248° |
| 2026-05-05 22:04 | 40.60001 | -74.41535 | 18059 ft | 310 kts | 248° |
| 2026-05-05 22:04 | 40.59162 | -74.44147 | 18671 ft | 314 kts | 248° |
| 2026-05-05 22:04 | 40.58318 | -74.46774 | 19296 ft | 317 kts | 249° |
| 2026-05-05 22:05 | 40.57453 | -74.49468 | 19798 ft | 323 kts | 249° |
| 2026-05-05 22:05 | 40.56579 | -74.52186 | 20429 ft | 325 kts | 249° |
| 2026-05-05 22:05 | 40.55701 | -74.54914 | 20978 ft | 329 kts | 248° |
| 2026-05-05 22:05 | 40.54806 | -74.57691 | 21569 ft | 332 kts | 249° |
| 2026-05-05 22:06 | 40.53901 | -74.60490 | 22114 ft | 335 kts | 249° |
| 2026-05-05 22:06 | 40.52998 | -74.63288 | 22611 ft | 338 kts | 249° |
| 2026-05-05 22:06 | 40.52081 | -74.66129 | 23163 ft | 340 kts | 248° |
| 2026-05-05 22:06 | 40.51152 | -74.69003 | 23661 ft | 344 kts | 248° |
| 2026-05-05 22:07 | 40.50211 | -74.71903 | 24201 ft | 346 kts | 248° |
| 2026-05-05 22:07 | 40.49262 | -74.74824 | 24713 ft | 349 kts | 249° |
| 2026-05-05 22:07 | 40.48313 | -74.77742 | 25130 ft | 353 kts | 249° |
| 2026-05-05 22:07 | 40.47342 | -74.80729 | 25715 ft | 353 kts | 249° |
| 2026-05-05 22:08 | 40.46384 | -74.83675 | 26027 ft | 360 kts | 249° |
| 2026-05-05 22:08 | 40.45397 | -74.86709 | 26551 ft | 360 kts | 249° |
| 2026-05-05 22:08 | 40.44414 | -74.89726 | 27010 ft | 362 kts | 249° |
| 2026-05-05 22:08 | 40.43417 | -74.92751 | 27426 ft | 364 kts | 248° |
| 2026-05-05 22:09 | 40.42318 | -74.95725 | 27815 ft | 369 kts | 243° |
| 2026-05-05 22:09 | 40.40919 | -74.98588 | 28291 ft | 372 kts | 236° |
| 2026-05-05 22:09 | 40.39277 | -75.01231 | 28652 ft | 377 kts | 232° |
| 2026-05-05 22:09 | 40.37519 | -75.03751 | 29020 ft | 380 kts | 230° |
| 2026-05-05 22:10 | 40.35688 | -75.06278 | 29296 ft | 385 kts | 230° |
| 2026-05-05 22:10 | 40.33828 | -75.08816 | 29745 ft | 385 kts | 230° |
| 2026-05-05 22:10 | 40.31990 | -75.11337 | 30050 ft | 389 kts | 230° |
| 2026-05-05 22:10 | 40.30115 | -75.13924 | 30479 ft | 389 kts | 230° |
| 2026-05-05 22:11 | 40.28273 | -75.16480 | 30807 ft | 392 kts | 230° |
| 2026-05-05 22:11 | 40.26389 | -75.19099 | 31184 ft | 394 kts | 231° |
| 2026-05-05 22:11 | 40.24519 | -75.21703 | 31513 ft | 396 kts | 231° |
| 2026-05-05 22:11 | 40.22638 | -75.24326 | 31952 ft | 395 kts | 231° |
| 2026-05-05 22:12 | 40.20742 | -75.26968 | 32194 ft | 400 kts | 232° |
| 2026-05-05 22:12 | 40.18845 | -75.29614 | 32572 ft | 400 kts | 232° |
| 2026-05-05 22:12 | 40.16954 | -75.32248 | 32855 ft | 403 kts | 232° |
| 2026-05-05 22:12 | 40.15038 | -75.34916 | 33153 ft | 405 kts | 232° |
| 2026-05-05 22:13 | 40.13103 | -75.37604 | 33591 ft | 404 kts | 232° |
| 2026-05-05 22:13 | 40.11169 | -75.40288 | 33876 ft | 406 kts | 232° |
| 2026-05-05 22:13 | 40.09244 | -75.42958 | 34222 ft | 407 kts | 232° |
| 2026-05-05 22:13 | 40.07287 | -75.45670 | 34413 ft | 411 kts | 232° |
| 2026-05-05 22:14 | 40.05321 | -75.48396 | 34607 ft | 415 kts | 233° |
| 2026-05-05 22:14 | 40.03355 | -75.51120 | 34972 ft | 413 kts | 232° |
| 2026-05-05 22:14 | 40.01373 | -75.53863 | 35121 ft | 417 kts | 233° |
| 2026-05-05 22:14 | 39.99393 | -75.56596 | 35377 ft | 417 kts | 232° |
| 2026-05-05 22:15 | 39.97424 | -75.59305 | 35795 ft | 413 kts | 232° |
| 2026-05-05 22:15 | 39.93457 | -75.64773 | 35885 ft | 418 kts | 232° |
| 2026-05-05 22:16 | 39.89561 | -75.70335 | 35873 ft | 413 kts | 235° |
| 2026-05-05 22:16 | 39.85954 | -75.76121 | 35877 ft | 412 kts | 237° |
| 2026-05-05 22:17 | 39.82389 | -75.81958 | 35881 ft | 413 kts | 237° |
| 2026-05-05 22:17 | 39.78809 | -75.87748 | 35887 ft | 410 kts | 236° |
| 2026-05-05 22:18 | 39.75203 | -75.93524 | 35887 ft | 415 kts | 237° |
| 2026-05-05 22:18 | 39.71576 | -75.99296 | 35883 ft | 413 kts | 236° |
| 2026-05-05 22:19 | 39.67966 | -76.05026 | 35877 ft | 412 kts | 236° |
| 2026-05-05 22:19 | 39.64331 | -76.10782 | 35882 ft | 414 kts | 237° |
| 2026-05-05 22:20 | 39.60688 | -76.16542 | 35878 ft | 413 kts | 236° |
| 2026-05-05 22:20 | 39.57017 | -76.22269 | 35888 ft | 413 kts | 236° |
| 2026-05-05 22:21 | 39.53299 | -76.27972 | 35876 ft | 415 kts | 236° |
| 2026-05-05 22:21 | 39.49594 | -76.33638 | 35881 ft | 414 kts | 236° |
| 2026-05-05 22:22 | 39.45861 | -76.39336 | 35883 ft | 416 kts | 235° |
| 2026-05-05 22:22 | 39.41902 | -76.44731 | 35889 ft | 417 kts | 232° |
| 2026-05-05 22:23 | 39.37788 | -76.49972 | 35881 ft | 415 kts | 232° |
| 2026-05-05 22:23 | 39.33674 | -76.55238 | 36184 ft | 417 kts | 232° |
| 2026-05-05 22:23 | 39.31632 | -76.57877 | 35948 ft | 418 kts | 232° |
| 2026-05-05 22:24 | 39.29600 | -76.60505 | 35901 ft | 412 kts | 232° |
| 2026-05-05 22:24 | 39.25567 | -76.65736 | 35892 ft | 412 kts | 232° |
| 2026-05-05 22:25 | 39.21496 | -76.71030 | 35890 ft | 417 kts | 232° |
| 2026-05-05 22:25 | 39.17461 | -76.76260 | 35893 ft | 413 kts | 232° |
| 2026-05-05 22:26 | 39.13412 | -76.81500 | 35893 ft | 414 kts | 232° |
| 2026-05-05 22:26 | 39.09358 | -76.86744 | 35893 ft | 412 kts | 232° |
| 2026-05-05 22:27 | 39.05322 | -76.91948 | 35893 ft | 414 kts | 232° |
| 2026-05-05 22:27 | 39.01264 | -76.97168 | 35890 ft | 413 kts | 232° |
| 2026-05-05 22:28 | 38.97205 | -77.02382 | 35891 ft | 413 kts | 232° |
| 2026-05-05 22:28 | 38.93161 | -77.07596 | 35882 ft | 412 kts | 232° |
| 2026-05-05 22:29 | 38.89103 | -77.12813 | 35887 ft | 412 kts | 232° |
| 2026-05-05 22:29 | 38.85067 | -77.17992 | 35892 ft | 413 kts | 233° |
| 2026-05-05 22:30 | 38.80971 | -77.23236 | 35886 ft | 414 kts | 232° |
| 2026-05-05 22:30 | 38.76915 | -77.28416 | 35887 ft | 414 kts | 232° |
| 2026-05-05 22:31 | 38.72840 | -77.33612 | 35888 ft | 413 kts | 232° |
| 2026-05-05 22:31 | 38.68626 | -77.38654 | 35898 ft | 416 kts | 230° |
| 2026-05-05 22:32 | 38.64326 | -77.43548 | 35897 ft | 415 kts | 230° |
| 2026-05-05 22:32 | 38.60001 | -77.48473 | 35901 ft | 417 kts | 230° |
| 2026-05-05 22:33 | 38.55669 | -77.53433 | 35911 ft | 417 kts | 230° |
| 2026-05-05 22:33 | 38.51379 | -77.58353 | 35903 ft | 414 kts | 230° |
| 2026-05-05 22:34 | 38.47085 | -77.63294 | 35910 ft | 420 kts | 230° |
| 2026-05-05 22:34 | 38.42720 | -77.68310 | 35921 ft | 420 kts | 230° |
| 2026-05-05 22:35 | 38.38418 | -77.73230 | 35914 ft | 417 kts | 229° |
| 2026-05-05 22:35 | 38.34097 | -77.78159 | 35915 ft | 419 kts | 230° |
| 2026-05-05 22:36 | 38.29742 | -77.83115 | 35915 ft | 416 kts | 230° |
| 2026-05-05 22:36 | 38.25434 | -77.88013 | 35921 ft | 418 kts | 230° |
| 2026-05-05 22:37 | 38.21090 | -77.92949 | 35924 ft | 420 kts | 229° |
| 2026-05-05 22:37 | 38.16748 | -77.97862 | 35932 ft | 419 kts | 230° |
| 2026-05-05 22:38 | 38.12395 | -78.02792 | 35929 ft | 421 kts | 230° |
| 2026-05-05 22:38 | 38.08020 | -78.07739 | 35923 ft | 419 kts | 230° |
| 2026-05-05 22:39 | 38.03695 | -78.12627 | 35928 ft | 419 kts | 230° |
| 2026-05-05 22:39 | 37.99284 | -78.17484 | 35923 ft | 422 kts | 227° |
| 2026-05-05 22:40 | 37.94574 | -78.22023 | 35918 ft | 427 kts | 225° |
| 2026-05-05 22:40 | 37.89820 | -78.26429 | 35924 ft | 426 kts | 225° |
| 2026-05-05 22:41 | 37.85066 | -78.30883 | 35926 ft | 426 kts | 225° |
| 2026-05-05 22:41 | 37.80317 | -78.35357 | 35923 ft | 426 kts | 226° |
| 2026-05-05 22:42 | 37.75565 | -78.39857 | 35930 ft | 424 kts | 226° |
| 2026-05-05 22:42 | 37.70863 | -78.44312 | 35922 ft | 423 kts | 226° |
| 2026-05-05 22:43 | 37.66132 | -78.48803 | 35933 ft | 426 kts | 226° |
| 2026-05-05 22:43 | 37.61412 | -78.53271 | 35935 ft | 425 kts | 226° |
| 2026-05-05 22:44 | 37.56678 | -78.57731 | 35941 ft | 426 kts | 226° |
| 2026-05-05 22:44 | 37.51945 | -78.62193 | 35942 ft | 425 kts | 226° |
| 2026-05-05 22:45 | 37.47190 | -78.66667 | 35955 ft | 428 kts | 226° |
| 2026-05-05 22:45 | 37.42427 | -78.71139 | 35954 ft | 425 kts | 226° |
| 2026-05-05 22:46 | 37.37481 | -78.75308 | 35960 ft | 437 kts | 219° |
| 2026-05-05 22:46 | 37.32068 | -78.78819 | 35958 ft | 438 kts | 215° |
| 2026-05-05 22:47 | 37.26538 | -78.82185 | 35951 ft | 441 kts | 216° |
| 2026-05-05 22:47 | 37.21054 | -78.85574 | 35961 ft | 441 kts | 216° |
| 2026-05-05 22:48 | 37.15591 | -78.89005 | 35958 ft | 439 kts | 216° |
| 2026-05-05 22:48 | 37.10157 | -78.92439 | 35958 ft | 441 kts | 216° |
| 2026-05-05 22:49 | 37.04686 | -78.95905 | 35962 ft | 441 kts | 217° |
| 2026-05-05 22:49 | 36.99231 | -78.99358 | 35962 ft | 439 kts | 217° |
| 2026-05-05 22:50 | 36.93766 | -79.02818 | 35972 ft | 441 kts | 217° |
| 2026-05-05 22:50 | 36.88277 | -79.06293 | 35969 ft | 444 kts | 217° |
| 2026-05-05 22:51 | 36.82818 | -79.09726 | 35969 ft | 439 kts | 217° |
| 2026-05-05 22:51 | 36.77313 | -79.13196 | 35970 ft | 441 kts | 217° |
| 2026-05-05 22:52 | 36.71825 | -79.16644 | 35976 ft | 444 kts | 217° |
| 2026-05-05 22:52 | 36.66347 | -79.20080 | 35979 ft | 444 kts | 217° |
| 2026-05-05 22:53 | 36.60862 | -79.23513 | 35981 ft | 442 kts | 217° |
| 2026-05-05 22:53 | 36.55368 | -79.26949 | 35989 ft | 443 kts | 217° |
| 2026-05-05 22:54 | 36.49861 | -79.30389 | 35988 ft | 443 kts | 217° |
| 2026-05-05 22:54 | 36.44342 | -79.33832 | 35991 ft | 444 kts | 217° |
| 2026-05-05 22:55 | 36.38822 | -79.37271 | 35990 ft | 444 kts | 217° |
| 2026-05-05 22:55 | 36.33302 | -79.40703 | 35992 ft | 444 kts | 217° |
| 2026-05-05 22:56 | 36.27788 | -79.44120 | 35990 ft | 443 kts | 217° |
| 2026-05-05 22:56 | 36.22278 | -79.47536 | 35989 ft | 446 kts | 218° |
| 2026-05-05 22:57 | 36.16750 | -79.50952 | 35996 ft | 442 kts | 218° |
| 2026-05-05 22:57 | 36.11227 | -79.54362 | 36004 ft | 447 kts | 218° |
| 2026-05-05 22:58 | 36.05683 | -79.57787 | 35997 ft | 447 kts | 218° |
| 2026-05-05 22:58 | 36.00113 | -79.61211 | 36002 ft | 445 kts | 218° |
| 2026-05-05 22:59 | 35.94588 | -79.64600 | 35997 ft | 444 kts | 218° |
| 2026-05-05 22:59 | 35.89048 | -79.68003 | 36002 ft | 449 kts | 217° |
| 2026-05-05 23:00 | 35.80637 | -79.73156 | 36004 ft | 447 kts | 217° |
| 2026-05-05 23:00 | 35.75044 | -79.76574 | 36007 ft | 448 kts | 217° |
| 2026-05-05 23:01 | 35.69476 | -79.79966 | 36019 ft | 447 kts | 217° |
| 2026-05-05 23:01 | 35.63915 | -79.83353 | 36009 ft | 447 kts | 217° |
| 2026-05-05 23:02 | 35.58352 | -79.86737 | 36023 ft | 449 kts | 217° |
| 2026-05-05 23:02 | 35.52767 | -79.90134 | 36015 ft | 450 kts | 217° |
| 2026-05-05 23:03 | 35.47140 | -79.93545 | 36017 ft | 450 kts | 218° |
| 2026-05-05 23:03 | 35.41565 | -79.96916 | 36010 ft | 448 kts | 218° |
| 2026-05-05 23:04 | 35.35974 | -80.00294 | 36015 ft | 450 kts | 217° |
| 2026-05-05 23:04 | 35.30375 | -80.03670 | 36011 ft | 446 kts | 218° |
| 2026-05-05 23:05 | 35.24787 | -80.07039 | 36014 ft | 451 kts | 217° |
| 2026-05-05 23:05 | 35.19109 | -80.10460 | 36015 ft | 448 kts | 217° |
| 2026-05-05 23:06 | 35.13530 | -80.13806 | 36017 ft | 451 kts | 217° |
| 2026-05-05 23:06 | 35.07910 | -80.17178 | 36016 ft | 448 kts | 217° |
| 2026-05-05 23:07 | 35.02318 | -80.20525 | 36020 ft | 448 kts | 217° |
| 2026-05-05 23:07 | 34.96714 | -80.23878 | 36015 ft | 448 kts | 217° |
| 2026-05-05 23:08 | 34.91134 | -80.27216 | 36014 ft | 448 kts | 217° |
| 2026-05-05 23:08 | 34.85531 | -80.30556 | 36014 ft | 449 kts | 217° |
| 2026-05-05 23:09 | 34.79912 | -80.33903 | 36011 ft | 450 kts | 217° |
| 2026-05-05 23:09 | 34.74338 | -80.37206 | 36011 ft | 446 kts | 217° |
| 2026-05-05 23:10 | 34.68752 | -80.40529 | 36009 ft | 451 kts | 217° |
| 2026-05-05 23:10 | 34.63105 | -80.43871 | 36004 ft | 446 kts | 217° |
| 2026-05-05 23:11 | 34.57559 | -80.47145 | 36011 ft | 448 kts | 218° |
| 2026-05-05 23:11 | 34.51914 | -80.50491 | 36013 ft | 451 kts | 217° |
| 2026-05-05 23:12 | 34.46328 | -80.53773 | 36013 ft | 446 kts | 217° |
| 2026-05-05 23:12 | 34.40763 | -80.57052 | 36018 ft | 448 kts | 217° |
| 2026-05-05 23:13 | 34.35139 | -80.60362 | 36025 ft | 449 kts | 217° |
| 2026-05-05 23:13 | 34.29556 | -80.63638 | 36030 ft | 447 kts | 217° |
| 2026-05-05 23:14 | 34.23943 | -80.66934 | 36029 ft | 448 kts | 216° |
| 2026-05-05 23:14 | 34.18344 | -80.70214 | 36029 ft | 445 kts | 216° |
| 2026-05-05 23:15 | 34.12773 | -80.73470 | 36025 ft | 448 kts | 217° |
| 2026-05-05 23:15 | 34.07153 | -80.76751 | 36020 ft | 447 kts | 216° |
| 2026-05-05 23:16 | 34.01595 | -80.79987 | 36018 ft | 446 kts | 216° |
| 2026-05-05 23:16 | 33.96005 | -80.83237 | 36022 ft | 447 kts | 216° |
| 2026-05-05 23:17 | 33.90386 | -80.86507 | 36018 ft | 447 kts | 216° |
| 2026-05-05 23:17 | 33.84816 | -80.89729 | 36021 ft | 444 kts | 216° |
| 2026-05-05 23:18 | 33.79245 | -80.92956 | 36028 ft | 450 kts | 217° |
| 2026-05-05 23:18 | 33.73621 | -80.96210 | 36023 ft | 446 kts | 216° |
| 2026-05-05 23:19 | 33.68019 | -80.99449 | 36021 ft | 449 kts | 216° |
| 2026-05-05 23:19 | 33.62410 | -81.02692 | 36017 ft | 446 kts | 217° |
| 2026-05-05 23:20 | 33.56799 | -81.05926 | 36019 ft | 447 kts | 216° |
| 2026-05-05 23:20 | 33.51184 | -81.09158 | 36026 ft | 448 kts | 217° |
| 2026-05-05 23:21 | 33.45591 | -81.12367 | 36015 ft | 446 kts | 216° |
| 2026-05-05 23:21 | 33.40012 | -81.15565 | 36010 ft | 448 kts | 217° |
| 2026-05-05 23:22 | 33.34339 | -81.18819 | 36018 ft | 452 kts | 216° |
| 2026-05-05 23:22 | 33.28717 | -81.22028 | 36024 ft | 445 kts | 217° |
| 2026-05-05 23:23 | 33.23121 | -81.25218 | 36031 ft | 448 kts | 217° |
| 2026-05-05 23:23 | 33.17479 | -81.28437 | 36031 ft | 450 kts | 217° |
| 2026-05-05 23:24 | 33.11861 | -81.31633 | 36027 ft | 450 kts | 217° |
| 2026-05-05 23:24 | 33.06217 | -81.34840 | 36023 ft | 447 kts | 217° |
| 2026-05-05 23:25 | 33.00608 | -81.38030 | 36015 ft | 449 kts | 217° |
| 2026-05-05 23:25 | 32.94955 | -81.41238 | 36016 ft | 449 kts | 217° |
| 2026-05-05 23:26 | 32.89334 | -81.44420 | 36020 ft | 451 kts | 217° |
| 2026-05-05 23:26 | 32.83681 | -81.47613 | 36009 ft | 448 kts | 217° |
| 2026-05-05 23:27 | 32.78046 | -81.50794 | 36020 ft | 450 kts | 217° |
| 2026-05-05 23:27 | 32.72414 | -81.53968 | 36028 ft | 447 kts | 217° |
| 2026-05-05 23:28 | 32.66757 | -81.57159 | 36034 ft | 451 kts | 217° |
| 2026-05-05 23:28 | 32.61159 | -81.60304 | 36032 ft | 446 kts | 217° |
| 2026-05-05 23:29 | 32.55485 | -81.63490 | 36033 ft | 453 kts | 217° |
| 2026-05-05 23:29 | 32.49820 | -81.66666 | 36032 ft | 452 kts | 216° |
| 2026-05-05 23:30 | 32.44117 | -81.69859 | 36025 ft | 453 kts | 216° |
| 2026-05-05 23:30 | 32.38435 | -81.73023 | 36029 ft | 450 kts | 217° |
| 2026-05-05 23:31 | 32.32722 | -81.76219 | 36032 ft | 456 kts | 216° |
| 2026-05-05 23:31 | 32.27049 | -81.79382 | 36027 ft | 450 kts | 217° |
| 2026-05-05 23:32 | 32.21404 | -81.82519 | 36031 ft | 451 kts | 217° |
| 2026-05-05 23:32 | 32.15704 | -81.85695 | 36030 ft | 452 kts | 217° |
| 2026-05-05 23:33 | 32.10039 | -81.88839 | 36031 ft | 450 kts | 217° |
| 2026-05-05 23:33 | 32.04344 | -81.91992 | 36033 ft | 450 kts | 217° |
| 2026-05-05 23:34 | 31.98662 | -81.95145 | 36030 ft | 453 kts | 217° |
| 2026-05-05 23:34 | 31.92952 | -81.98302 | 36031 ft | 452 kts | 217° |
| 2026-05-05 23:35 | 31.87233 | -82.01337 | 36029 ft | 458 kts | 213° |
| 2026-05-05 23:35 | 31.81009 | -82.03542 | 36016 ft | 473 kts | 204° |
| 2026-05-05 23:36 | 31.74539 | -82.05128 | 36017 ft | 475 kts | 202° |
| 2026-05-05 23:36 | 31.68077 | -82.06609 | 36023 ft | 475 kts | 202° |
| 2026-05-05 23:37 | 31.61603 | -82.08160 | 36023 ft | 472 kts | 202° |
| 2026-05-05 23:37 | 31.55184 | -82.09744 | 36019 ft | 472 kts | 203° |
| 2026-05-05 23:38 | 31.48760 | -82.11348 | 36026 ft | 473 kts | 204° |
| 2026-05-05 23:38 | 31.42339 | -82.12955 | 36024 ft | 469 kts | 204° |
| 2026-05-05 23:39 | 31.35936 | -82.14563 | 36023 ft | 474 kts | 203° |
| 2026-05-05 23:39 | 31.29504 | -82.16174 | 36025 ft | 472 kts | 203° |
| 2026-05-05 23:40 | 31.23069 | -82.17780 | 36025 ft | 473 kts | 203° |
| 2026-05-05 23:40 | 31.16671 | -82.19385 | 36023 ft | 470 kts | 204° |
| 2026-05-05 23:41 | 31.10259 | -82.20987 | 36026 ft | 471 kts | 204° |
| 2026-05-05 23:41 | 31.03873 | -82.22574 | 36026 ft | 467 kts | 204° |
| 2026-05-05 23:42 | 30.97468 | -82.24178 | 36027 ft | 473 kts | 204° |
| 2026-05-05 23:42 | 30.91040 | -82.25783 | 36026 ft | 473 kts | 204° |
| 2026-05-05 23:43 | 30.84633 | -82.27352 | 36024 ft | 466 kts | 204° |
| 2026-05-05 23:43 | 30.81454 | -82.28132 | 35609 ft | 465 kts | 204° |
| 2026-05-05 23:43 | 30.78291 | -82.28921 | 34415 ft | 476 kts | 203° |
| 2026-05-05 23:44 | 30.75051 | -82.29744 | 33268 ft | 485 kts | 203° |
| 2026-05-05 23:44 | 30.71776 | -82.30562 | 32972 ft | 475 kts | 202° |
| 2026-05-05 23:44 | 30.68546 | -82.31353 | 32291 ft | 476 kts | 202° |
| 2026-05-05 23:44 | 30.65291 | -82.32072 | 31829 ft | 475 kts | 198° |
| 2026-05-05 23:45 | 30.61996 | -82.32608 | 31339 ft | 474 kts | 196° |
| 2026-05-05 23:45 | 30.58770 | -82.33009 | 30887 ft | 472 kts | 195° |
| 2026-05-05 23:45 | 30.55487 | -82.33373 | 30281 ft | 471 kts | 194° |
| 2026-05-05 23:45 | 30.52250 | -82.33718 | 29909 ft | 465 kts | 194° |
| 2026-05-05 23:46 | 30.49038 | -82.34067 | 29444 ft | 461 kts | 193° |
| 2026-05-05 23:46 | 30.45848 | -82.34431 | 28865 ft | 459 kts | 193° |
| 2026-05-05 23:46 | 30.42714 | -82.34799 | 28529 ft | 452 kts | 194° |
| 2026-05-05 23:46 | 30.39597 | -82.35167 | 28050 ft | 449 kts | 194° |
| 2026-05-05 23:47 | 30.36489 | -82.35540 | 27577 ft | 446 kts | 193° |
| 2026-05-05 23:47 | 30.33413 | -82.35912 | 27176 ft | 441 kts | 194° |
| 2026-05-05 23:47 | 30.30381 | -82.36281 | 26751 ft | 437 kts | 193° |
| 2026-05-05 23:47 | 30.27356 | -82.36652 | 26345 ft | 432 kts | 193° |
| 2026-05-05 23:48 | 30.24413 | -82.37012 | 25977 ft | 427 kts | 193° |
| 2026-05-05 23:48 | 30.21450 | -82.37379 | 25578 ft | 422 kts | 194° |
| 2026-05-05 23:48 | 30.18538 | -82.37721 | 25062 ft | 422 kts | 192° |
| 2026-05-05 23:48 | 30.15616 | -82.37877 | 24788 ft | 417 kts | 187° |
| 2026-05-05 23:49 | 30.12744 | -82.37830 | 24329 ft | 417 kts | 185° |
| 2026-05-05 23:49 | 30.09820 | -82.37681 | 23944 ft | 413 kts | 183° |
| 2026-05-05 23:49 | 30.06948 | -82.37489 | 23496 ft | 411 kts | 182° |
| 2026-05-05 23:49 | 30.04147 | -82.37293 | 23108 ft | 406 kts | 182° |
| 2026-05-05 23:50 | 30.01363 | -82.37103 | 23017 ft | 393 kts | 183° |
| 2026-05-05 23:50 | 29.98663 | -82.36924 | 22929 ft | 380 kts | 183° |
| 2026-05-05 23:50 | 29.96038 | -82.36762 | 22548 ft | 378 kts | 184° |
| 2026-05-05 23:50 | 29.93425 | -82.36614 | 22160 ft | 375 kts | 184° |
| 2026-05-05 23:51 | 29.90795 | -82.36470 | 21756 ft | 374 kts | 184° |
| 2026-05-05 23:51 | 29.88189 | -82.36327 | 21334 ft | 372 kts | 183° |
| 2026-05-05 23:51 | 29.85620 | -82.36185 | 20949 ft | 369 kts | 183° |
| 2026-05-05 23:51 | 29.83060 | -82.36045 | 20535 ft | 367 kts | 183° |
| 2026-05-05 23:52 | 29.80522 | -82.35906 | 20119 ft | 366 kts | 183° |
| 2026-05-05 23:52 | 29.77979 | -82.35767 | 19716 ft | 364 kts | 183° |
| 2026-05-05 23:52 | 29.75465 | -82.35628 | 19328 ft | 362 kts | 182° |
| 2026-05-05 23:52 | 29.72954 | -82.35490 | 18915 ft | 361 kts | 182° |
| 2026-05-05 23:53 | 29.70471 | -82.35352 | 18544 ft | 358 kts | 182° |
| 2026-05-05 23:53 | 29.67963 | -82.35210 | 18107 ft | 358 kts | 181° |
| 2026-05-05 23:53 | 29.65498 | -82.35073 | 17799 ft | 354 kts | 181° |
| 2026-05-05 23:53 | 29.63011 | -82.34940 | 17323 ft | 355 kts | 181° |
| 2026-05-05 23:54 | 29.60577 | -82.34806 | 16999 ft | 352 kts | 181° |
| 2026-05-05 23:54 | 29.58136 | -82.34671 | 16694 ft | 347 kts | 181° |
| 2026-05-05 23:54 | 29.55707 | -82.34535 | 16325 ft | 346 kts | 181° |
| 2026-05-05 23:54 | 29.53320 | -82.34404 | 16021 ft | 343 kts | 181° |
| 2026-05-05 23:55 | 29.50944 | -82.34273 | 15664 ft | 340 kts | 181° |
| 2026-05-05 23:55 | 29.48594 | -82.34145 | 15243 ft | 339 kts | 180° |
| 2026-05-05 23:55 | 29.46234 | -82.34017 | 14924 ft | 338 kts | 180° |
| 2026-05-05 23:55 | 29.43904 | -82.33888 | 14615 ft | 333 kts | 180° |
| 2026-05-05 23:56 | 29.41570 | -82.33759 | 14214 ft | 333 kts | 180° |
| 2026-05-05 23:56 | 29.39291 | -82.33611 | 13918 ft | 329 kts | 178° |
| 2026-05-05 23:56 | 29.37001 | -82.33373 | 13560 ft | 328 kts | 176° |
| 2026-05-05 23:56 | 29.34732 | -82.33079 | 13267 ft | 326 kts | 176° |
| 2026-05-05 23:57 | 29.32488 | -82.32782 | 13024 ft | 321 kts | 175° |
| 2026-05-05 23:57 | 29.30311 | -82.32501 | 12972 ft | 317 kts | 176° |
| 2026-05-05 23:57 | 29.28079 | -82.32227 | 12962 ft | 322 kts | 176° |
| 2026-05-05 23:57 | 29.25855 | -82.31960 | 12940 ft | 320 kts | 176° |
| 2026-05-05 23:58 | 29.23674 | -82.31699 | 12951 ft | 305 kts | 176° |
| 2026-05-05 23:58 | 29.21610 | -82.31452 | 12966 ft | 293 kts | 176° |
| 2026-05-05 23:58 | 29.19577 | -82.31210 | 12973 ft | 290 kts | 177° |
| 2026-05-05 23:58 | 29.17560 | -82.30972 | 12974 ft | 294 kts | 177° |
| 2026-05-05 23:59 | 29.15508 | -82.30730 | 12968 ft | 294 kts | 176° |
| 2026-05-05 23:59 | 29.13520 | -82.30490 | 12960 ft | 282 kts | 177° |
| 2026-05-05 23:59 | 29.11600 | -82.30258 | 12965 ft | 272 kts | 177° |
| 2026-05-05 23:59 | 29.09721 | -82.30034 | 12971 ft | 268 kts | 176° |
| 2026-05-06 00:00 | 29.07875 | -82.29816 | 12994 ft | 270 kts | 176° |
| 2026-05-06 00:00 | 29.05983 | -82.29594 | 12973 ft | 271 kts | 177° |
| 2026-05-06 00:00 | 29.04091 | -82.29371 | 12964 ft | 271 kts | 176° |
| 2026-05-06 00:00 | 29.02233 | -82.29150 | 12942 ft | 268 kts | 177° |
| 2026-05-06 00:01 | 29.00367 | -82.28928 | 12706 ft | 268 kts | 177° |
| 2026-05-06 00:01 | 28.98512 | -82.28706 | 12414 ft | 268 kts | 177° |
| 2026-05-06 00:01 | 28.96665 | -82.28487 | 12142 ft | 268 kts | 176° |
| 2026-05-06 00:01 | 28.94812 | -82.28268 | 11911 ft | 265 kts | 176° |
| 2026-05-06 00:02 | 28.92989 | -82.28051 | 11650 ft | 265 kts | 177° |
| 2026-05-06 00:02 | 28.91150 | -82.27834 | 11369 ft | 265 kts | 177° |
| 2026-05-06 00:02 | 28.89312 | -82.27615 | 11145 ft | 262 kts | 177° |
| 2026-05-06 00:02 | 28.87493 | -82.27399 | 10880 ft | 261 kts | 177° |
| 2026-05-06 00:03 | 28.85694 | -82.27184 | 10644 ft | 259 kts | 177° |
| 2026-05-06 00:03 | 28.83893 | -82.26971 | 10391 ft | 258 kts | 177° |
| 2026-05-06 00:03 | 28.82087 | -82.26759 | 9988 ft | 264 kts | 178° |
| 2026-05-06 00:03 | 28.80239 | -82.26543 | 9589 ft | 269 kts | 177° |
| 2026-05-06 00:04 | 28.78368 | -82.26323 | 9189 ft | 273 kts | 177° |
| 2026-05-06 00:04 | 28.76477 | -82.26099 | 8787 ft | 276 kts | 177° |
| 2026-05-06 00:04 | 28.74542 | -82.25874 | 8382 ft | 279 kts | 178° |
| 2026-05-06 00:04 | 28.72606 | -82.25740 | 8063 ft | 277 kts | 181° |
| 2026-05-06 00:05 | 28.68948 | -82.25690 | 7968 ft | 249 kts | 183° |
| 2026-05-06 00:05 | 28.67265 | -82.25680 | 7944 ft | 233 kts | 183° |
| 2026-05-06 00:05 | 28.65688 | -82.25663 | 7756 ft | 226 kts | 183° |
| 2026-05-06 00:06 | 28.64105 | -82.25644 | 7444 ft | 225 kts | 182° |
| 2026-05-06 00:06 | 28.62540 | -82.25620 | 7161 ft | 223 kts | 182° |
| 2026-05-06 00:06 | 28.60993 | -82.25591 | 6863 ft | 220 kts | 181° |
| 2026-05-06 00:06 | 28.59468 | -82.25562 | 6573 ft | 216 kts | 182° |
| 2026-05-06 00:07 | 28.58003 | -82.25532 | 6302 ft | 211 kts | 181° |
| 2026-05-06 00:07 | 28.56533 | -82.25505 | 5964 ft | 209 kts | 181° |
| 2026-05-06 00:07 | 28.55065 | -82.25478 | 5584 ft | 210 kts | 180° |
| 2026-05-06 00:07 | 28.53606 | -82.25450 | 5229 ft | 209 kts | 180° |
| 2026-05-06 00:08 | 28.52166 | -82.25423 | 5011 ft | 201 kts | 180° |
| 2026-05-06 00:08 | 28.50819 | -82.25404 | 4901 ft | 189 kts | 180° |
| 2026-05-06 00:08 | 28.49526 | -82.25389 | 4725 ft | 182 kts | 180° |
| 2026-05-06 00:08 | 28.48285 | -82.25375 | 4508 ft | 175 kts | 180° |
| 2026-05-06 00:09 | 28.47055 | -82.25359 | 4129 ft | 178 kts | 179° |
| 2026-05-06 00:09 | 28.45818 | -82.25342 | 3797 ft | 177 kts | 179° |
| 2026-05-06 00:09 | 28.44589 | -82.25326 | 3455 ft | 175 kts | 178° |
| 2026-05-06 00:09 | 28.43382 | -82.25310 | 3138 ft | 174 kts | 178° |
| 2026-05-06 00:10 | 28.42176 | -82.25294 | 2885 ft | 169 kts | 178° |
| 2026-05-06 00:10 | 28.41021 | -82.25280 | 2671 ft | 163 kts | 177° |
| 2026-05-06 00:10 | 28.39884 | -82.25264 | 2377 ft | 163 kts | 177° |
| 2026-05-06 00:10 | 28.38766 | -82.25250 | 2132 ft | 159 kts | 177° |
| 2026-05-06 00:11 | 28.37666 | -82.25239 | 2164 ft | 156 kts | 176° |
| 2026-05-06 00:11 | 28.36552 | -82.25266 | 2196 ft | 165 kts | 186° |
| 2026-05-06 00:11 | 28.35505 | -82.25810 | 2190 ft | 170 kts | 219° |
| 2026-05-06 00:11 | 28.34641 | -82.26759 | 2189 ft | 171 kts | 220° |
| 2026-05-06 00:12 | 28.33760 | -82.27644 | 2189 ft | 168 kts | 216° |
| 2026-05-06 00:12 | 28.32862 | -82.28491 | 2192 ft | 169 kts | 216° |
| 2026-05-06 00:12 | 28.31953 | -82.29353 | 2190 ft | 167 kts | 217° |
| 2026-05-06 00:12 | 28.31074 | -82.30188 | 2189 ft | 165 kts | 217° |
| 2026-05-06 00:13 | 28.30225 | -82.31075 | 2187 ft | 167 kts | 229° |
| 2026-05-06 00:13 | 28.29794 | -82.32312 | 2198 ft | 174 kts | 262° |
| 2026-05-06 00:13 | 28.29713 | -82.33684 | 2187 ft | 175 kts | 262° |
| 2026-05-06 00:13 | 28.29585 | -82.35048 | 2190 ft | 174 kts | 259° |
| 2026-05-06 00:14 | 28.29426 | -82.36403 | 2190 ft | 174 kts | 259° |
| 2026-05-06 00:14 | 28.29265 | -82.37759 | 2189 ft | 171 kts | 259° |
| 2026-05-06 00:14 | 28.29107 | -82.39105 | 2187 ft | 173 kts | 259° |
| 2026-05-06 00:14 | 28.28947 | -82.40465 | 2185 ft | 173 kts | 260° |
| 2026-05-06 00:15 | 28.28898 | -82.41843 | 2187 ft | 175 kts | 267° |
| 2026-05-06 00:15 | 28.28569 | -82.43116 | 2173 ft | 170 kts | 224° |
| 2026-05-06 00:15 | 28.27572 | -82.43730 | 2280 ft | 161 kts | 193° |
| 2026-05-06 00:15 | 28.26516 | -82.44182 | 2439 ft | 167 kts | 204° |
| 2026-05-06 00:16 | 28.25479 | -82.44839 | 2419 ft | 170 kts | 208° |
| 2026-05-06 00:16 | 28.24467 | -82.45521 | 2279 ft | 166 kts | 208° |
| 2026-05-06 00:16 | 28.23485 | -82.46167 | 2147 ft | 164 kts | 207° |
| 2026-05-06 00:16 | 28.22490 | -82.46806 | 2064 ft | 162 kts | 207° |
| 2026-05-06 00:17 | 28.21507 | -82.47446 | 2072 ft | 163 kts | 207° |
| 2026-05-06 00:17 | 28.20511 | -82.48099 | 2069 ft | 165 kts | 207° |
| 2026-05-06 00:17 | 28.19515 | -82.48742 | 2064 ft | 164 kts | 207° |
| 2026-05-06 00:17 | 28.18530 | -82.49377 | 2067 ft | 164 kts | 208° |
| 2026-05-06 00:18 | 28.17541 | -82.50021 | 2068 ft | 163 kts | 208° |
| 2026-05-06 00:18 | 28.16553 | -82.50666 | 2070 ft | 163 kts | 208° |
| 2026-05-06 00:18 | 28.15568 | -82.51307 | 2069 ft | 163 kts | 207° |
| 2026-05-06 00:18 | 28.14577 | -82.51949 | 2070 ft | 164 kts | 207° |
| 2026-05-06 00:19 | 28.13519 | -82.52399 | 2065 ft | 160 kts | 185° |
| 2026-05-06 00:19 | 28.12393 | -82.52422 | 2076 ft | 161 kts | 179° |
| 2026-05-06 00:19 | 28.11270 | -82.52428 | 2066 ft | 160 kts | 180° |
| 2026-05-06 00:19 | 28.10143 | -82.52452 | 2071 ft | 162 kts | 180° |
| 2026-05-06 00:20 | 28.09011 | -82.52477 | 2081 ft | 161 kts | 180° |
| 2026-05-06 00:20 | 28.07875 | -82.52512 | 2005 ft | 164 kts | 180° |
| 2026-05-06 00:20 | 28.06735 | -82.52564 | 1736 ft | 164 kts | 181° |
| 2026-05-06 00:20 | 28.05588 | -82.52612 | 1293 ft | 166 kts | 182° |
| 2026-05-06 00:21 | 28.04450 | -82.52663 | 962 ft | 160 kts | 183° |
| 2026-05-06 00:21 | 28.03349 | -82.52703 | 763 ft | 160 kts | 182° |
| 2026-05-06 00:21 | 28.02206 | -82.52718 | 658 ft | 166 kts | 182° |
| 2026-05-06 00:21 | 28.01024 | -82.52747 | 509 ft | 171 kts | 183° |
| 2026-05-06 00:22 | 27.99810 | -82.52788 | 286 ft | 175 kts | 184° |
| 2026-05-06 00:22 | 27.98586 | -82.52832 | 66 ft | 177 kts | 182° |
| 2026-05-06 00:22 | 27.97512 | -82.52868 | 26 ft | 106 kts | 180° |
| 2026-05-06 00:22 | 27.97136 | -82.52877 | 22 ft | 11 kts | 181° |
| 2026-05-06 00:23 | 27.97112 | -82.52878 | 22 ft | 7 kts | 182° |
| 2026-05-06 00:23 | 27.97043 | -82.52880 | 22 ft | 12 kts | 182° |
| 2026-05-06 00:23 | 27.96993 | -82.52882 | 22 ft | 0 kts | 182° |
| 2026-05-06 00:23 | 27.96966 | -82.52889 | 22 ft | 6 kts | 206° |
| 2026-05-06 00:24 | 27.96949 | -82.52943 | 22 ft | 6 kts | 274° |
| 2026-05-06 00:24 | 27.96950 | -82.52952 | 22 ft | 0 kts | 279° |
| 2026-05-06 00:25 | 27.96955 | -82.52975 | 22 ft | 7 kts | 297° |
| 2026-05-06 00:25 | 27.97016 | -82.53001 | 22 ft | 12 kts | 2° |
| 2026-05-06 00:26 | 27.97123 | -82.52998 | 22 ft | 18 kts | 1° |
| 2026-05-06 00:26 | 27.97264 | -82.52995 | 22 ft | 21 kts | 2° |
| 2026-05-06 00:26 | 27.97418 | -82.52989 | 24 ft | 15 kts | 2° |
| 2026-05-06 00:26 | 27.97493 | -82.52986 | 26 ft | 12 kts | 2° |
| 2026-05-06 00:27 | 27.97604 | -82.52984 | 26 ft | 18 kts | 1° |
| 2026-05-06 00:27 | 27.97754 | -82.52979 | 26 ft | 22 kts | 1° |
| 2026-05-06 00:27 | 27.97900 | -82.52972 | 26 ft | 20 kts | 1° |
| 2026-05-06 00:27 | 27.98034 | -82.52985 | 26 ft | 16 kts | 324° |
| 2026-05-06 00:28 | 27.98091 | -82.53080 | 26 ft | 13 kts | 276° |
| 2026-05-06 00:28 | 27.98099 | -82.53144 | 26 ft | 4 kts | 333° |
| 2026-05-06 00:28 | 27.98143 | -82.53153 | 26 ft | 2 kts | 346° |
| 2026-05-06 00:28 | 27.98155 | -82.53156 | 26 ft | 0 kts | 345° |